FRT weather

El Avellano Airport
Frutillar, Los Lagos Region, Chile

Public forecast

Using degrees Celsius for public forecast. Weather courtesy of forecast.io.

Closest aviation weather report (METAR) to El Avellano Airport

Closest report is El Tepual Airport, 19.4 nm (36.0 km) S. Retrieved 2020/04/07 10:00 UTC (4 minutes ago):

SCTE 071000Z 24004KT 200V260 9999 FEW002 04/03 Q1021 NOSIG

Closest aviation forecast (TAF) to El Avellano Airport

Closest forecast is El Tepual Airport, 19.4 nm (36.0 km) S. Retrieved 2020/04/07 06:00 UTC (4 hours ago):

TAF SCTE 070406Z 0706/0806 17004KT CAVOK TN00/0711Z TX17/0719Z TEMPO 0709/0713 0800 FG BCFG BKN002 BECMG 0714/0716 16012KT BECMG 0801/0803 VRB03KT 3000 BR OVC010